sensor_id;sensor_type;location;lat;lon;timestamp;P1;durP1;ratioP1;P2;durP2;ratioP2
7813;SDS011;3952;48.364;16.022;2023-07-30T00:02:25;2.47;;;2.15;;
7813;SDS011;3952;48.364;16.022;2023-07-30T00:04:52;2.55;;;2.13;;
7813;SDS011;3952;48.364;16.022;2023-07-30T00:07:21;2.13;;;2.03;;
7813;SDS011;3952;48.364;16.022;2023-07-30T00:09:48;3.00;;;2.17;;
7813;SDS011;3952;48.364;16.022;2023-07-30T00:12:15;2.33;;;2.13;;
7813;SDS011;3952;48.364;16.022;2023-07-30T00:14:42;2.33;;;2.22;;
7813;SDS011;3952;48.364;16.022;2023-07-30T00:17:09;2.78;;;2.50;;
7813;SDS011;3952;48.364;16.022;2023-07-30T00:19:37;2.30;;;2.20;;
7813;SDS011;3952;48.364;16.022;2023-07-30T00:22:04;3.13;;;2.30;;
7813;SDS011;3952;48.364;16.022;2023-07-30T00:24:33;2.40;;;2.20;;
7813;SDS011;3952;48.364;16.022;2023-07-30T00:27:00;2.35;;;2.15;;
7813;SDS011;3952;48.364;16.022;2023-07-30T00:29:27;2.25;;;2.10;;
7813;SDS011;3952;48.364;16.022;2023-07-30T00:31:54;2.20;;;2.10;;
7813;SDS011;3952;48.364;16.022;2023-07-30T00:34:22;2.25;;;2.10;;
7813;SDS011;3952;48.364;16.022;2023-07-30T00:36:49;2.20;;;2.10;;
7813;SDS011;3952;48.364;16.022;2023-07-30T00:39:16;1.85;;;1.75;;
7813;SDS011;3952;48.364;16.022;2023-07-30T00:41:44;2.17;;;2.07;;
7813;SDS011;3952;48.364;16.022;2023-07-30T00:44:12;2.42;;;2.30;;
7813;SDS011;3952;48.364;16.022;2023-07-30T00:46:39;2.10;;;2.00;;
7813;SDS011;3952;48.364;16.022;2023-07-30T00:49:06;2.23;;;2.13;;
7813;SDS011;3952;48.364;16.022;2023-07-30T00:51:34;2.33;;;2.13;;
7813;SDS011;3952;48.364;16.022;2023-07-30T00:54:01;2.75;;;2.03;;
7813;SDS011;3952;48.364;16.022;2023-07-30T00:56:28;2.05;;;1.95;;
7813;SDS011;3952;48.364;16.022;2023-07-30T00:58:58;2.43;;;2.33;;
7813;SDS011;3952;48.364;16.022;2023-07-30T01:01:25;2.10;;;2.00;;
7813;SDS011;3952;48.364;16.022;2023-07-30T01:03:52;2.10;;;2.00;;
7813;SDS011;3952;48.364;16.022;2023-07-30T01:06:20;1.90;;;1.80;;
7813;SDS011;3952;48.364;16.022;2023-07-30T01:08:48;2.13;;;2.03;;
7813;SDS011;3952;48.364;16.022;2023-07-30T01:11:15;2.33;;;2.23;;
7813;SDS011;3952;48.364;16.022;2023-07-30T01:13:44;2.23;;;2.00;;
7813;SDS011;3952;48.364;16.022;2023-07-30T01:16:13;2.13;;;2.03;;
7813;SDS011;3952;48.364;16.022;2023-07-30T01:18:40;2.27;;;2.17;;
7813;SDS011;3952;48.364;16.022;2023-07-30T01:21:09;2.15;;;2.05;;
7813;SDS011;3952;48.364;16.022;2023-07-30T01:23:36;2.60;;;2.30;;
7813;SDS011;3952;48.364;16.022;2023-07-30T01:26:04;2.20;;;2.10;;
7813;SDS011;3952;48.364;16.022;2023-07-30T01:28:37;2.35;;;2.25;;
7813;SDS011;3952;48.364;16.022;2023-07-30T01:31:09;2.13;;;2.03;;
7813;SDS011;3952;48.364;16.022;2023-07-30T01:33:42;3.10;;;2.73;;
7813;SDS011;3952;48.364;16.022;2023-07-30T01:36:15;2.50;;;2.40;;
7813;SDS011;3952;48.364;16.022;2023-07-30T01:38:43;2.23;;;2.13;;
7813;SDS011;3952;48.364;16.022;2023-07-30T01:41:10;2.23;;;2.13;;
7813;SDS011;3952;48.364;16.022;2023-07-30T01:43:38;2.20;;;2.10;;
7813;SDS011;3952;48.364;16.022;2023-07-30T01:46:05;2.27;;;2.17;;
7813;SDS011;3952;48.364;16.022;2023-07-30T01:48:32;2.20;;;2.10;;
7813;SDS011;3952;48.364;16.022;2023-07-30T01:50:59;2.40;;;2.30;;
7813;SDS011;3952;48.364;16.022;2023-07-30T01:53:28;2.53;;;2.43;;
7813;SDS011;3952;48.364;16.022;2023-07-30T01:55:55;2.20;;;2.10;;
7813;SDS011;3952;48.364;16.022;2023-07-30T01:58:22;2.50;;;2.27;;
7813;SDS011;3952;48.364;16.022;2023-07-30T02:00:49;2.00;;;1.90;;
7813;SDS011;3952;48.364;16.022;2023-07-30T02:03:16;2.13;;;2.03;;
7813;SDS011;3952;48.364;16.022;2023-07-30T02:05:43;2.13;;;2.03;;
7813;SDS011;3952;48.364;16.022;2023-07-30T02:08:11;2.23;;;2.13;;
7813;SDS011;3952;48.364;16.022;2023-07-30T02:10:42;2.33;;;2.23;;
7813;SDS011;3952;48.364;16.022;2023-07-30T02:13:09;2.60;;;2.50;;
7813;SDS011;3952;48.364;16.022;2023-07-30T02:15:39;2.07;;;1.97;;
7813;SDS011;3952;48.364;16.022;2023-07-30T02:18:07;2.30;;;2.20;;
7813;SDS011;3952;48.364;16.022;2023-07-30T02:20:35;2.43;;;2.33;;
7813;SDS011;3952;48.364;16.022;2023-07-30T02:23:02;3.00;;;2.07;;
7813;SDS011;3952;48.364;16.022;2023-07-30T02:25:29;2.10;;;1.93;;
7813;SDS011;3952;48.364;16.022;2023-07-30T02:27:59;1.97;;;1.87;;
7813;SDS011;3952;48.364;16.022;2023-07-30T02:30:26;2.07;;;1.97;;
7813;SDS011;3952;48.364;16.022;2023-07-30T02:32:53;2.60;;;2.40;;
7813;SDS011;3952;48.364;16.022;2023-07-30T02:35:22;2.30;;;2.20;;
7813;SDS011;3952;48.364;16.022;2023-07-30T02:37:49;2.10;;;2.00;;
7813;SDS011;3952;48.364;16.022;2023-07-30T02:40:16;2.00;;;1.90;;
7813;SDS011;3952;48.364;16.022;2023-07-30T02:42:43;1.90;;;1.80;;
7813;SDS011;3952;48.364;16.022;2023-07-30T02:45:12;2.40;;;2.20;;
7813;SDS011;3952;48.364;16.022;2023-07-30T02:47:39;2.10;;;2.00;;
7813;SDS011;3952;48.364;16.022;2023-07-30T02:50:06;2.20;;;2.10;;
7813;SDS011;3952;48.364;16.022;2023-07-30T02:52:35;1.90;;;1.80;;
7813;SDS011;3952;48.364;16.022;2023-07-30T02:55:02;2.10;;;2.00;;
7813;SDS011;3952;48.364;16.022;2023-07-30T02:57:29;2.20;;;2.07;;
7813;SDS011;3952;48.364;16.022;2023-07-30T02:59:56;2.20;;;2.07;;
7813;SDS011;3952;48.364;16.022;2023-07-30T03:02:25;2.63;;;2.23;;
7813;SDS011;3952;48.364;16.022;2023-07-30T03:04:52;2.30;;;2.20;;
7813;SDS011;3952;48.364;16.022;2023-07-30T03:07:19;2.73;;;2.20;;
7813;SDS011;3952;48.364;16.022;2023-07-30T03:09:47;2.10;;;2.00;;
7813;SDS011;3952;48.364;16.022;2023-07-30T03:12:14;2.60;;;2.40;;
7813;SDS011;3952;48.364;16.022;2023-07-30T03:14:42;2.43;;;2.27;;
7813;SDS011;3952;48.364;16.022;2023-07-30T03:17:09;2.23;;;2.10;;
7813;SDS011;3952;48.364;16.022;2023-07-30T03:19:37;3.20;;;2.30;;
7813;SDS011;3952;48.364;16.022;2023-07-30T03:22:04;2.37;;;2.17;;
7813;SDS011;3952;48.364;16.022;2023-07-30T03:24:32;2.57;;;2.47;;
7813;SDS011;3952;48.364;16.022;2023-07-30T03:26:59;2.80;;;2.60;;
7813;SDS011;3952;48.364;16.022;2023-07-30T03:29:26;2.60;;;2.40;;
7813;SDS011;3952;48.364;16.022;2023-07-30T03:31:53;2.57;;;2.40;;
7813;SDS011;3952;48.364;16.022;2023-07-30T03:34:20;2.70;;;2.50;;
7813;SDS011;3952;48.364;16.022;2023-07-30T03:36:49;2.67;;;2.57;;
7813;SDS011;3952;48.364;16.022;2023-07-30T03:39:16;3.43;;;2.30;;
7813;SDS011;3952;48.364;16.022;2023-07-30T03:41:43;2.40;;;2.20;;
7813;SDS011;3952;48.364;16.022;2023-07-30T03:44:10;2.47;;;2.30;;
7813;SDS011;3952;48.364;16.022;2023-07-30T03:46:37;2.57;;;2.37;;
7813;SDS011;3952;48.364;16.022;2023-07-30T03:49:05;2.30;;;2.20;;
7813;SDS011;3952;48.364;16.022;2023-07-30T03:51:32;2.20;;;2.10;;
7813;SDS011;3952;48.364;16.022;2023-07-30T03:54:00;2.57;;;2.37;;
7813;SDS011;3952;48.364;16.022;2023-07-30T03:56:28;2.33;;;2.23;;
7813;SDS011;3952;48.364;16.022;2023-07-30T03:58:55;2.27;;;2.17;;
7813;SDS011;3952;48.364;16.022;2023-07-30T04:01:22;2.47;;;2.37;;
7813;SDS011;3952;48.364;16.022;2023-07-30T04:03:49;2.40;;;2.27;;
7813;SDS011;3952;48.364;16.022;2023-07-30T04:06:16;2.33;;;2.23;;
7813;SDS011;3952;48.364;16.022;2023-07-30T04:08:44;2.50;;;2.40;;
7813;SDS011;3952;48.364;16.022;2023-07-30T04:11:12;3.40;;;2.70;;
7813;SDS011;3952;48.364;16.022;2023-07-30T04:13:39;2.87;;;2.67;;
7813;SDS011;3952;48.364;16.022;2023-07-30T04:16:06;2.97;;;2.77;;
7813;SDS011;3952;48.364;16.022;2023-07-30T04:18:34;2.87;;;2.67;;
7813;SDS011;3952;48.364;16.022;2023-07-30T04:21:01;2.90;;;2.70;;
7813;SDS011;3952;48.364;16.022;2023-07-30T04:23:28;2.60;;;2.50;;
7813;SDS011;3952;48.364;16.022;2023-07-30T04:25:55;2.60;;;2.40;;
7813;SDS011;3952;48.364;16.022;2023-07-30T04:28:24;2.47;;;2.37;;
7813;SDS011;3952;48.364;16.022;2023-07-30T04:30:51;2.50;;;2.40;;
7813;SDS011;3952;48.364;16.022;2023-07-30T04:33:18;2.60;;;2.40;;
7813;SDS011;3952;48.364;16.022;2023-07-30T04:35:45;2.73;;;2.53;;
7813;SDS011;3952;48.364;16.022;2023-07-30T04:38:13;2.30;;;2.10;;
7813;SDS011;3952;48.364;16.022;2023-07-30T04:40:40;2.67;;;2.47;;
7813;SDS011;3952;48.364;16.022;2023-07-30T04:43:07;3.00;;;2.20;;
7813;SDS011;3952;48.364;16.022;2023-07-30T04:45:35;2.97;;;2.70;;
7813;SDS011;3952;48.364;16.022;2023-07-30T04:48:03;2.40;;;2.30;;
7813;SDS011;3952;48.364;16.022;2023-07-30T04:50:30;2.90;;;2.70;;
7813;SDS011;3952;48.364;16.022;2023-07-30T04:52:57;3.50;;;2.77;;
7813;SDS011;3952;48.364;16.022;2023-07-30T04:55:25;2.83;;;2.63;;
7813;SDS011;3952;48.364;16.022;2023-07-30T04:57:52;2.70;;;2.60;;
7813;SDS011;3952;48.364;16.022;2023-07-30T05:00:19;2.73;;;2.53;;
7813;SDS011;3952;48.364;16.022;2023-07-30T05:02:48;7.03;;;2.60;;
7813;SDS011;3952;48.364;16.022;2023-07-30T05:05:15;2.33;;;2.13;;
7813;SDS011;3952;48.364;16.022;2023-07-30T05:07:42;2.30;;;2.20;;
7813;SDS011;3952;48.364;16.022;2023-07-30T05:10:09;2.63;;;2.43;;
7813;SDS011;3952;48.364;16.022;2023-07-30T05:12:36;2.50;;;2.30;;
7813;SDS011;3952;48.364;16.022;2023-07-30T05:15:04;2.33;;;2.23;;
7813;SDS011;3952;48.364;16.022;2023-07-30T05:17:32;2.43;;;2.33;;
7813;SDS011;3952;48.364;16.022;2023-07-30T05:20:01;2.80;;;2.60;;
7813;SDS011;3952;48.364;16.022;2023-07-30T05:22:29;3.00;;;2.90;;
7813;SDS011;3952;48.364;16.022;2023-07-30T05:24:56;2.53;;;2.33;;
7813;SDS011;3952;48.364;16.022;2023-07-30T05:27:23;2.77;;;2.60;;
7813;SDS011;3952;48.364;16.022;2023-07-30T05:29:53;2.30;;;2.20;;
7813;SDS011;3952;48.364;16.022;2023-07-30T05:32:20;2.60;;;2.40;;
7813;SDS011;3952;48.364;16.022;2023-07-30T05:34:47;2.50;;;2.40;;
7813;SDS011;3952;48.364;16.022;2023-07-30T05:37:16;2.80;;;2.70;;
7813;SDS011;3952;48.364;16.022;2023-07-30T05:39:44;2.40;;;2.20;;
7813;SDS011;3952;48.364;16.022;2023-07-30T05:42:11;2.70;;;2.50;;
7813;SDS011;3952;48.364;16.022;2023-07-30T05:44:52;3.13;;;2.80;;
7813;SDS011;3952;48.364;16.022;2023-07-30T05:47:37;9.70;;;4.00;;
7813;SDS011;3952;48.364;16.022;2023-07-30T05:50:22;5.50;;;3.40;;
7813;SDS011;3952;48.364;16.022;2023-07-30T05:52:53;3.07;;;2.87;;
7813;SDS011;3952;48.364;16.022;2023-07-30T05:55:20;2.90;;;2.70;;
7813;SDS011;3952;48.364;16.022;2023-07-30T05:57:47;3.00;;;2.77;;
7813;SDS011;3952;48.364;16.022;2023-07-30T06:00:14;2.83;;;2.70;;
7813;SDS011;3952;48.364;16.022;2023-07-30T06:02:41;2.40;;;2.30;;
7813;SDS011;3952;48.364;16.022;2023-07-30T06:05:09;2.83;;;2.57;;
7813;SDS011;3952;48.364;16.022;2023-07-30T06:07:36;3.87;;;2.83;;
7813;SDS011;3952;48.364;16.022;2023-07-30T06:10:06;3.23;;;2.47;;
7813;SDS011;3952;48.364;16.022;2023-07-30T06:12:33;2.90;;;2.70;;
7813;SDS011;3952;48.364;16.022;2023-07-30T06:15:01;2.47;;;2.27;;
7813;SDS011;3952;48.364;16.022;2023-07-30T06:17:28;2.73;;;2.53;;
7813;SDS011;3952;48.364;16.022;2023-07-30T06:19:55;3.80;;;3.50;;
7813;SDS011;3952;48.364;16.022;2023-07-30T06:22:22;3.13;;;2.87;;
7813;SDS011;3952;48.364;16.022;2023-07-30T06:24:50;3.13;;;2.93;;
7813;SDS011;3952;48.364;16.022;2023-07-30T06:27:18;3.27;;;2.70;;
7813;SDS011;3952;48.364;16.022;2023-07-30T06:29:45;3.00;;;2.80;;
7813;SDS011;3952;48.364;16.022;2023-07-30T06:32:13;3.10;;;2.90;;
7813;SDS011;3952;48.364;16.022;2023-07-30T06:34:40;3.73;;;3.40;;
7813;SDS011;3952;48.364;16.022;2023-07-30T06:37:07;2.70;;;2.60;;
7813;SDS011;3952;48.364;16.022;2023-07-30T06:39:34;3.00;;;2.80;;
7813;SDS011;3952;48.364;16.022;2023-07-30T06:42:01;3.40;;;3.10;;
7813;SDS011;3952;48.364;16.022;2023-07-30T06:44:30;2.90;;;2.80;;
7813;SDS011;3952;48.364;16.022;2023-07-30T06:46:58;3.60;;;3.40;;
7813;SDS011;3952;48.364;16.022;2023-07-30T06:49:25;4.47;;;2.97;;
7813;SDS011;3952;48.364;16.022;2023-07-30T06:51:52;3.00;;;2.80;;
7813;SDS011;3952;48.364;16.022;2023-07-30T06:54:20;3.20;;;3.00;;
7813;SDS011;3952;48.364;16.022;2023-07-30T06:56:47;3.10;;;2.90;;
7813;SDS011;3952;48.364;16.022;2023-07-30T06:59:14;2.77;;;2.67;;
7813;SDS011;3952;48.364;16.022;2023-07-30T07:01:43;2.87;;;2.60;;
7813;SDS011;3952;48.364;16.022;2023-07-30T07:04:10;3.50;;;3.20;;
7813;SDS011;3952;48.364;16.022;2023-07-30T07:06:37;3.23;;;3.03;;
7813;SDS011;3952;48.364;16.022;2023-07-30T07:09:04;3.30;;;3.00;;
7813;SDS011;3952;48.364;16.022;2023-07-30T07:11:32;2.90;;;2.70;;
7813;SDS011;3952;48.364;16.022;2023-07-30T07:13:59;2.40;;;2.23;;
7813;SDS011;3952;48.364;16.022;2023-07-30T07:16:26;3.43;;;3.10;;
7813;SDS011;3952;48.364;16.022;2023-07-30T07:18:55;2.70;;;2.30;;
7813;SDS011;3952;48.364;16.022;2023-07-30T07:21:22;2.60;;;2.40;;
7813;SDS011;3952;48.364;16.022;2023-07-30T07:23:49;2.63;;;2.43;;
7813;SDS011;3952;48.364;16.022;2023-07-30T07:26:16;3.73;;;2.43;;
7813;SDS011;3952;48.364;16.022;2023-07-30T07:28:43;2.90;;;2.70;;
7813;SDS011;3952;48.364;16.022;2023-07-30T07:31:10;2.50;;;2.30;;
7813;SDS011;3952;48.364;16.022;2023-07-30T07:33:38;2.70;;;2.60;;
7813;SDS011;3952;48.364;16.022;2023-07-30T07:36:07;2.40;;;2.30;;
7813;SDS011;3952;48.364;16.022;2023-07-30T07:38:35;2.57;;;2.37;;
7813;SDS011;3952;48.364;16.022;2023-07-30T07:41:02;2.30;;;2.10;;
7813;SDS011;3952;48.364;16.022;2023-07-30T07:43:29;2.70;;;2.43;;
7813;SDS011;3952;48.364;16.022;2023-07-30T07:45:57;2.60;;;2.40;;
7813;SDS011;3952;48.364;16.022;2023-07-30T07:48:24;2.00;;;1.90;;
7813;SDS011;3952;48.364;16.022;2023-07-30T07:50:51;2.00;;;1.90;;
7813;SDS011;3952;48.364;16.022;2023-07-30T07:53:20;2.23;;;2.13;;
7813;SDS011;3952;48.364;16.022;2023-07-30T07:55:47;2.10;;;2.00;;
7813;SDS011;3952;48.364;16.022;2023-07-30T07:58:14;3.13;;;2.03;;
7813;SDS011;3952;48.364;16.022;2023-07-30T08:00:41;2.50;;;2.00;;
7813;SDS011;3952;48.364;16.022;2023-07-30T08:03:08;2.03;;;1.93;;
7813;SDS011;3952;48.364;16.022;2023-07-30T08:05:35;2.27;;;2.07;;
7813;SDS011;3952;48.364;16.022;2023-07-30T08:08:03;2.40;;;2.27;;
7813;SDS011;3952;48.364;16.022;2023-07-30T08:10:31;2.20;;;2.10;;
7813;SDS011;3952;48.364;16.022;2023-07-30T08:12:59;2.10;;;2.00;;
7813;SDS011;3952;48.364;16.022;2023-07-30T08:15:26;2.20;;;2.10;;
7813;SDS011;3952;48.364;16.022;2023-07-30T08:17:53;2.30;;;2.20;;
7813;SDS011;3952;48.364;16.022;2023-07-30T08:20:20;2.17;;;2.00;;
7813;SDS011;3952;48.364;16.022;2023-07-30T08:22:47;2.10;;;2.00;;
7813;SDS011;3952;48.364;16.022;2023-07-30T08:25:15;2.17;;;2.07;;
7813;SDS011;3952;48.364;16.022;2023-07-30T08:27:43;2.10;;;2.00;;
7813;SDS011;3952;48.364;16.022;2023-07-30T08:30:11;2.63;;;2.20;;
7813;SDS011;3952;48.364;16.022;2023-07-30T08:32:39;2.10;;;2.00;;
7813;SDS011;3952;48.364;16.022;2023-07-30T08:35:08;1.90;;;1.90;;
7813;SDS011;3952;48.364;16.022;2023-07-30T08:37:36;2.47;;;2.27;;
7813;SDS011;3952;48.364;16.022;2023-07-30T08:40:03;2.87;;;2.67;;
7813;SDS011;3952;48.364;16.022;2023-07-30T08:42:32;2.20;;;2.10;;
7813;SDS011;3952;48.364;16.022;2023-07-30T08:45:00;3.00;;;2.80;;
7813;SDS011;3952;48.364;16.022;2023-07-30T08:47:31;2.83;;;2.63;;
7813;SDS011;3952;48.364;16.022;2023-07-30T08:49:58;2.50;;;2.40;;
7813;SDS011;3952;48.364;16.022;2023-07-30T08:52:25;2.87;;;2.63;;
7813;SDS011;3952;48.364;16.022;2023-07-30T08:54:53;3.30;;;3.10;;
7813;SDS011;3952;48.364;16.022;2023-07-30T08:57:23;3.03;;;2.83;;
7813;SDS011;3952;48.364;16.022;2023-07-30T08:59:53;2.72;;;2.53;;
7813;SDS011;3952;48.364;16.022;2023-07-30T09:02:30;2.63;;;2.47;;
7813;SDS011;3952;48.364;16.022;2023-07-30T09:05:04;3.25;;;2.97;;
7813;SDS011;3952;48.364;16.022;2023-07-30T09:07:31;2.70;;;2.60;;
7813;SDS011;3952;48.364;16.022;2023-07-30T09:09:59;2.60;;;2.50;;
7813;SDS011;3952;48.364;16.022;2023-07-30T09:12:26;3.45;;;3.15;;
7813;SDS011;3952;48.364;16.022;2023-07-30T09:14:55;2.70;;;2.60;;
7813;SDS011;3952;48.364;16.022;2023-07-30T09:17:23;2.70;;;2.60;;
7813;SDS011;3952;48.364;16.022;2023-07-30T09:19:52;2.78;;;2.67;;
7813;SDS011;3952;48.364;16.022;2023-07-30T09:22:23;3.05;;;2.85;;
7813;SDS011;3952;48.364;16.022;2023-07-30T09:24:51;3.25;;;3.05;;
7813;SDS011;3952;48.364;16.022;2023-07-30T09:27:20;2.58;;;2.47;;
7813;SDS011;3952;48.364;16.022;2023-07-30T09:29:51;3.80;;;2.70;;
7813;SDS011;3952;48.364;16.022;2023-07-30T09:32:19;2.92;;;2.58;;
7813;SDS011;3952;48.364;16.022;2023-07-30T09:34:46;2.78;;;2.67;;
7813;SDS011;3952;48.364;16.022;2023-07-30T09:37:15;5.30;;;2.90;;
7813;SDS011;3952;48.364;16.022;2023-07-30T09:39:43;2.95;;;2.85;;
7813;SDS011;3952;48.364;16.022;2023-07-30T09:42:13;2.40;;;2.20;;
7813;SDS011;3952;48.364;16.022;2023-07-30T09:44:40;2.15;;;2.05;;
7813;SDS011;3952;48.364;16.022;2023-07-30T09:47:08;2.17;;;2.08;;
7813;SDS011;3952;48.364;16.022;2023-07-30T09:49:36;2.55;;;2.35;;
7813;SDS011;3952;48.364;16.022;2023-07-30T09:52:04;3.53;;;2.50;;
7813;SDS011;3952;48.364;16.022;2023-07-30T09:54:33;3.67;;;3.00;;
7813;SDS011;3952;48.364;16.022;2023-07-30T09:57:03;3.33;;;1.90;;
7813;SDS011;3952;48.364;16.022;2023-07-30T09:59:30;3.45;;;2.17;;
7813;SDS011;3952;48.364;16.022;2023-07-30T10:01:57;4.45;;;2.22;;
7813;SDS011;3952;48.364;16.022;2023-07-30T10:04:26;1.77;;;1.67;;
7813;SDS011;3952;48.364;16.022;2023-07-30T10:06:54;1.55;;;1.50;;
7813;SDS011;3952;48.364;16.022;2023-07-30T10:09:28;5.25;;;2.10;;
7813;SDS011;3952;48.364;16.022;2023-07-30T10:12:00;1.88;;;1.45;;
7813;SDS011;3952;48.364;16.022;2023-07-30T10:14:30;1.40;;;1.40;;
7813;SDS011;3952;48.364;16.022;2023-07-30T10:16:59;1.60;;;1.50;;
7813;SDS011;3952;48.364;16.022;2023-07-30T10:19:27;1.60;;;1.60;;
7813;SDS011;3952;48.364;16.022;2023-07-30T10:22:01;1.77;;;1.77;;
7813;SDS011;3952;48.364;16.022;2023-07-30T10:24:55;3.33;;;2.08;;
7813;SDS011;3952;48.364;16.022;2023-07-30T10:27:25;1.75;;;1.65;;
7813;SDS011;3952;48.364;16.022;2023-07-30T10:30:11;2.30;;;2.20;;
7813;SDS011;3952;48.364;16.022;2023-07-30T10:32:40;1.90;;;1.80;;
7813;SDS011;3952;48.364;16.022;2023-07-30T10:35:08;2.55;;;1.80;;
7813;SDS011;3952;48.364;16.022;2023-07-30T10:37:35;1.80;;;1.70;;
7813;SDS011;3952;48.364;16.022;2023-07-30T10:40:15;1.70;;;1.70;;
7813;SDS011;3952;48.364;16.022;2023-07-30T10:42:45;1.60;;;1.60;;
7813;SDS011;3952;48.364;16.022;2023-07-30T10:45:14;2.13;;;2.03;;
7813;SDS011;3952;48.364;16.022;2023-07-30T10:47:41;1.70;;;1.70;;
7813;SDS011;3952;48.364;16.022;2023-07-30T10:50:09;2.10;;;1.90;;
7813;SDS011;3952;48.364;16.022;2023-07-30T10:52:38;1.90;;;1.80;;
7813;SDS011;3952;48.364;16.022;2023-07-30T10:55:06;1.80;;;1.70;;
7813;SDS011;3952;48.364;16.022;2023-07-30T10:57:34;1.73;;;1.63;;
7813;SDS011;3952;48.364;16.022;2023-07-30T11:00:03;1.70;;;1.70;;
7813;SDS011;3952;48.364;16.022;2023-07-30T11:02:33;1.45;;;1.45;;
7813;SDS011;3952;48.364;16.022;2023-07-30T11:05:10;1.55;;;1.55;;
7813;SDS011;3952;48.364;16.022;2023-07-30T11:07:38;1.77;;;1.50;;
7813;SDS011;3952;48.364;16.022;2023-07-30T11:10:05;1.60;;;1.50;;
7813;SDS011;3952;48.364;16.022;2023-07-30T11:12:33;1.23;;;1.20;;
7813;SDS011;3952;48.364;16.022;2023-07-30T11:15:03;1.15;;;1.15;;
7813;SDS011;3952;48.364;16.022;2023-07-30T11:17:30;1.30;;;1.30;;
7813;SDS011;3952;48.364;16.022;2023-07-30T11:19:58;1.13;;;1.13;;
7813;SDS011;3952;48.364;16.022;2023-07-30T11:22:29;1.10;;;1.10;;
7813;SDS011;3952;48.364;16.022;2023-07-30T11:24:57;1.23;;;1.20;;
7813;SDS011;3952;48.364;16.022;2023-07-30T11:27:26;1.40;;;1.30;;
7813;SDS011;3952;48.364;16.022;2023-07-30T11:29:55;1.77;;;1.50;;
7813;SDS011;3952;48.364;16.022;2023-07-30T11:32:24;1.48;;;1.40;;
7813;SDS011;3952;48.364;16.022;2023-07-30T11:34:55;2.45;;;1.17;;
7813;SDS011;3952;48.364;16.022;2023-07-30T11:37:22;1.65;;;1.50;;
7813;SDS011;3952;48.364;16.022;2023-07-30T11:39:50;1.08;;;1.00;;
7813;SDS011;3952;48.364;16.022;2023-07-30T11:42:19;0.80;;;0.80;;
7813;SDS011;3952;48.364;16.022;2023-07-30T11:44:46;0.80;;;0.80;;
7813;SDS011;3952;48.364;16.022;2023-07-30T11:47:20;0.93;;;0.93;;
7813;SDS011;3952;48.364;16.022;2023-07-30T11:49:56;2.28;;;0.98;;
7813;SDS011;3952;48.364;16.022;2023-07-30T11:52:23;0.60;;;0.60;;
7813;SDS011;3952;48.364;16.022;2023-07-30T11:54:59;0.90;;;0.90;;
7813;SDS011;3952;48.364;16.022;2023-07-30T11:57:32;0.88;;;0.88;;
7813;SDS011;3952;48.364;16.022;2023-07-30T12:00:00;0.77;;;0.77;;
7813;SDS011;3952;48.364;16.022;2023-07-30T12:02:28;0.70;;;0.70;;
7813;SDS011;3952;48.364;16.022;2023-07-30T12:04:58;0.70;;;0.70;;
7813;SDS011;3952;48.364;16.022;2023-07-30T12:07:25;0.70;;;0.70;;
7813;SDS011;3952;48.364;16.022;2023-07-30T12:09:52;0.70;;;0.70;;
7813;SDS011;3952;48.364;16.022;2023-07-30T12:12:19;0.70;;;0.70;;
7813;SDS011;3952;48.364;16.022;2023-07-30T12:14:53;0.80;;;0.80;;
7813;SDS011;3952;48.364;16.022;2023-07-30T12:17:21;0.90;;;0.90;;
7813;SDS011;3952;48.364;16.022;2023-07-30T12:19:48;0.73;;;0.73;;
7813;SDS011;3952;48.364;16.022;2023-07-30T12:22:17;0.70;;;0.70;;
7813;SDS011;3952;48.364;16.022;2023-07-30T12:24:44;0.80;;;0.80;;
7813;SDS011;3952;48.364;16.022;2023-07-30T12:27:11;0.80;;;0.80;;
7813;SDS011;3952;48.364;16.022;2023-07-30T12:29:38;1.85;;;1.10;;
7813;SDS011;3952;48.364;16.022;2023-07-30T12:32:06;0.70;;;0.70;;
7813;SDS011;3952;48.364;16.022;2023-07-30T12:34:34;0.95;;;0.95;;
7813;SDS011;3952;48.364;16.022;2023-07-30T12:37:01;0.95;;;0.95;;
7813;SDS011;3952;48.364;16.022;2023-07-30T12:39:31;0.70;;;0.70;;
7813;SDS011;3952;48.364;16.022;2023-07-30T12:41:58;0.63;;;0.63;;
7813;SDS011;3952;48.364;16.022;2023-07-30T12:44:25;0.60;;;0.60;;
7813;SDS011;3952;48.364;16.022;2023-07-30T12:46:52;0.60;;;0.60;;
7813;SDS011;3952;48.364;16.022;2023-07-30T12:49:20;0.77;;;0.77;;
7813;SDS011;3952;48.364;16.022;2023-07-30T12:51:47;0.75;;;0.75;;
7813;SDS011;3952;48.364;16.022;2023-07-30T12:54:14;1.05;;;1.05;;
7813;SDS011;3952;48.364;16.022;2023-07-30T12:56:43;0.95;;;0.95;;
7813;SDS011;3952;48.364;16.022;2023-07-30T12:59:10;0.85;;;0.85;;
7813;SDS011;3952;48.364;16.022;2023-07-30T13:01:38;0.85;;;0.85;;
7813;SDS011;3952;48.364;16.022;2023-07-30T13:04:05;0.68;;;0.68;;
7813;SDS011;3952;48.364;16.022;2023-07-30T13:06:32;0.57;;;0.57;;
7813;SDS011;3952;48.364;16.022;2023-07-30T13:09:00;0.80;;;0.80;;
7813;SDS011;3952;48.364;16.022;2023-07-30T13:11:27;0.90;;;0.90;;
7813;SDS011;3952;48.364;16.022;2023-07-30T13:13:56;0.80;;;0.80;;
7813;SDS011;3952;48.364;16.022;2023-07-30T13:16:23;0.90;;;0.90;;
7813;SDS011;3952;48.364;16.022;2023-07-30T13:18:50;0.93;;;0.88;;
7813;SDS011;3952;48.364;16.022;2023-07-30T13:21:22;0.88;;;0.65;;
7813;SDS011;3952;48.364;16.022;2023-07-30T13:23:49;0.73;;;0.73;;
7813;SDS011;3952;48.364;16.022;2023-07-30T13:26:17;0.80;;;0.80;;
7813;SDS011;3952;48.364;16.022;2023-07-30T13:28:44;0.80;;;0.80;;
7813;SDS011;3952;48.364;16.022;2023-07-30T13:31:13;0.80;;;0.80;;
7813;SDS011;3952;48.364;16.022;2023-07-30T13:33:43;0.60;;;0.60;;
7813;SDS011;3952;48.364;16.022;2023-07-30T13:36:12;0.93;;;0.93;;
7813;SDS011;3952;48.364;16.022;2023-07-30T13:38:40;0.77;;;0.77;;
7813;SDS011;3952;48.364;16.022;2023-07-30T13:41:08;0.73;;;0.73;;
7813;SDS011;3952;48.364;16.022;2023-07-30T13:43:35;1.20;;;0.60;;
7813;SDS011;3952;48.364;16.022;2023-07-30T13:46:03;0.95;;;0.95;;
7813;SDS011;3952;48.364;16.022;2023-07-30T13:48:31;0.98;;;0.82;;
7813;SDS011;3952;48.364;16.022;2023-07-30T13:50:59;0.77;;;0.77;;
7813;SDS011;3952;48.364;16.022;2023-07-30T13:53:28;0.85;;;0.85;;
7813;SDS011;3952;48.364;16.022;2023-07-30T13:55:56;0.80;;;0.80;;
7813;SDS011;3952;48.364;16.022;2023-07-30T13:58:23;0.70;;;0.70;;
7813;SDS011;3952;48.364;16.022;2023-07-30T14:00:53;0.80;;;0.80;;
7813;SDS011;3952;48.364;16.022;2023-07-30T14:03:21;1.17;;;0.80;;
7813;SDS011;3952;48.364;16.022;2023-07-30T14:05:49;1.20;;;0.95;;
7813;SDS011;3952;48.364;16.022;2023-07-30T14:08:16;0.95;;;0.95;;
7813;SDS011;3952;48.364;16.022;2023-07-30T14:10:44;1.00;;;1.00;;
7813;SDS011;3952;48.364;16.022;2023-07-30T14:13:11;1.50;;;0.80;;
7813;SDS011;3952;48.364;16.022;2023-07-30T14:15:38;1.00;;;1.00;;
7813;SDS011;3952;48.364;16.022;2023-07-30T14:18:05;0.85;;;0.85;;
7813;SDS011;3952;48.364;16.022;2023-07-30T14:20:32;0.90;;;0.90;;
7813;SDS011;3952;48.364;16.022;2023-07-30T14:23:04;1.00;;;1.00;;
7813;SDS011;3952;48.364;16.022;2023-07-30T14:25:31;2.00;;;1.23;;
7813;SDS011;3952;48.364;16.022;2023-07-30T14:27:58;1.20;;;1.20;;
7813;SDS011;3952;48.364;16.022;2023-07-30T14:30:26;1.52;;;1.30;;
7813;SDS011;3952;48.364;16.022;2023-07-30T14:32:53;1.35;;;1.10;;
7813;SDS011;3952;48.364;16.022;2023-07-30T14:35:20;1.00;;;0.70;;
7813;SDS011;3952;48.364;16.022;2023-07-30T14:37:48;0.90;;;0.90;;
7813;SDS011;3952;48.364;16.022;2023-07-30T14:40:16;1.10;;;1.00;;
7813;SDS011;3952;48.364;16.022;2023-07-30T14:42:44;0.85;;;0.85;;
7813;SDS011;3952;48.364;16.022;2023-07-30T14:45:11;1.85;;;0.82;;
7813;SDS011;3952;48.364;16.022;2023-07-30T14:47:38;1.05;;;1.05;;
7813;SDS011;3952;48.364;16.022;2023-07-30T14:50:06;1.33;;;0.93;;
7813;SDS011;3952;48.364;16.022;2023-07-30T14:52:34;1.20;;;1.20;;
7813;SDS011;3952;48.364;16.022;2023-07-30T14:55:01;1.58;;;1.38;;
7813;SDS011;3952;48.364;16.022;2023-07-30T14:57:30;1.63;;;1.52;;
7813;SDS011;3952;48.364;16.022;2023-07-30T14:59:58;5.50;;;2.13;;
7813;SDS011;3952;48.364;16.022;2023-07-30T15:02:27;7.03;;;2.20;;
7813;SDS011;3952;48.364;16.022;2023-07-30T15:04:55;2.97;;;2.22;;
7813;SDS011;3952;48.364;16.022;2023-07-30T15:07:22;7.20;;;2.72;;